createdAt,value
2019-06-26T00:00:24.037Z,10.27
2019-06-26T00:05:28.982Z,10.15
2019-06-26T00:10:33.875Z,10.50
2019-06-26T00:15:41.741Z,9.65
2019-06-26T00:20:46.554Z,9.45
2019-06-26T00:25:51.390Z,9.98
2019-06-26T00:30:56.337Z,9.00
2019-06-26T00:36:01.705Z,9.53
2019-06-26T00:41:06.716Z,9.55
2019-06-26T00:46:11.552Z,9.80
2019-06-26T00:51:16.629Z,9.77
2019-06-26T00:56:21.667Z,9.73
2019-06-26T01:01:28.570Z,9.45
2019-06-26T01:06:45.357Z,9.88
2019-06-26T01:11:51.213Z,9.83
2019-06-26T01:16:56.120Z,9.23
2019-06-26T01:22:00.947Z,9.10
2019-06-26T01:27:08.639Z,9.77
2019-06-26T01:32:13.601Z,9.95
2019-06-26T01:37:18.858Z,9.95
2019-06-26T01:42:23.715Z,10.18
2019-06-26T01:47:28.587Z,10.40
2019-06-26T01:52:34.497Z,9.55
2019-06-26T01:57:39.406Z,9.63
2019-06-26T02:02:44.562Z,10.00
2019-06-26T02:07:49.374Z,9.95
2019-06-26T02:12:54.375Z,9.63
2019-06-26T02:17:59.333Z,10.63
2019-06-26T02:23:04.826Z,10.55
2019-06-26T02:28:09.681Z,10.63
2019-06-26T02:33:14.721Z,10.45
2019-06-26T02:38:22.219Z,10.82
2019-06-26T02:43:30.533Z,9.95
2019-06-26T02:48:36.720Z,11.43
2019-06-26T02:53:42.731Z,10.95
2019-06-26T02:58:47.656Z,10.88
2019-06-26T03:03:52.685Z,11.08
2019-06-26T03:08:57.561Z,11.57
2019-06-26T03:14:02.615Z,11.90
2019-06-26T03:19:10.248Z,12.13
2019-06-26T03:24:15.607Z,11.90
2019-06-26T03:29:20.359Z,11.93
2019-06-26T03:34:25.245Z,12.30
2019-06-26T03:39:30.146Z,11.70
2019-06-26T03:44:35.050Z,13.28
2019-06-26T03:49:39.835Z,13.68
2019-06-26T03:54:44.678Z,13.88
2019-06-26T03:59:49.609Z,12.85
2019-06-26T04:04:54.458Z,13.15
2019-06-26T04:09:59.292Z,13.48
2019-06-26T04:15:04.997Z,13.05
2019-06-26T04:20:12.161Z,12.73
2019-06-26T04:25:17.195Z,12.93
2019-06-26T04:30:23.959Z,15.28
2019-06-26T04:35:28.889Z,15.32
2019-06-26T04:40:33.893Z,18.40
2019-06-26T04:45:54.126Z,17.40
2019-06-26T04:50:48.521Z,17.20
2019-06-26T04:55:53.471Z,18.17
2019-06-26T05:00:58.241Z,17.77
2019-06-26T05:06:03.017Z,17.17
2019-06-26T05:11:07.773Z,19.17
2019-06-26T05:16:15.702Z,17.50
2019-06-26T05:21:19.163Z,18.90
2019-06-26T05:26:24.008Z,18.65
2019-06-26T05:31:28.833Z,17.95
2019-06-26T05:36:33.745Z,18.20
2019-06-26T05:41:38.544Z,18.77
2019-06-26T05:46:43.317Z,18.05
2019-06-26T05:51:48.057Z,19.15
2019-06-26T05:56:59.179Z,18.30
2019-06-26T06:02:04.835Z,17.37
2019-06-26T06:07:09.689Z,18.60
2019-06-26T06:12:14.403Z,16.82
2019-06-26T06:17:19.291Z,18.55
2019-06-26T06:22:27.335Z,17.48
2019-06-26T06:27:30.782Z,17.57
2019-06-26T06:32:35.778Z,15.78
2019-06-26T06:37:40.756Z,15.60
2019-06-26T06:43:02.114Z,16.97
2019-06-26T06:48:07.278Z,12.33
2019-06-26T06:53:12.113Z,17.00
2019-06-26T06:58:17.149Z,16.77
2019-06-26T07:03:21.966Z,15.15
2019-06-26T07:08:26.920Z,15.63
2019-06-26T07:13:37.721Z,15.78
2019-06-26T07:18:43.859Z,15.45
2019-06-26T07:23:49.862Z,11.50
2019-06-26T07:28:54.717Z,13.15
2019-06-26T07:34:00.877Z,15.13
2019-06-26T07:39:06.678Z,10.23
2019-06-26T07:44:11.955Z,9.80
2019-06-26T07:49:17.323Z,9.78
2019-06-26T07:54:22.117Z,13.03
2019-06-26T07:59:27.041Z,11.48
2019-06-26T08:04:31.880Z,10.28
2019-06-26T08:09:37.424Z,13.18
2019-06-26T08:14:42.953Z,8.80
2019-06-26T08:19:48.245Z,8.88
2019-06-26T08:25:03.159Z,12.73
2019-06-26T08:30:10.001Z,7.33
2019-06-26T08:35:15.480Z,7.40
2019-06-26T08:40:22.090Z,9.18
2019-06-26T08:45:27.211Z,8.03
2019-06-26T08:50:31.994Z,7.78
2019-06-26T08:55:36.806Z,7.67
2019-06-26T09:00:41.634Z,7.80
2019-06-26T09:05:48.663Z,9.03
2019-06-26T09:10:53.390Z,9.28
2019-06-26T09:16:00.917Z,9.88
2019-06-26T09:21:05.907Z,6.97
2019-06-26T09:26:10.757Z,8.00
2019-06-26T09:31:15.553Z,9.63
2019-06-26T09:36:20.433Z,8.87
2019-06-26T09:41:25.155Z,9.75
2019-06-26T09:46:30.938Z,7.12
2019-06-26T09:51:35.768Z,7.62
2019-06-26T09:56:40.767Z,7.60
2019-06-26T10:01:45.663Z,7.80
2019-06-26T10:06:50.477Z,8.68
2019-06-26T10:11:55.224Z,9.23
2019-06-26T10:16:59.966Z,9.70
2019-06-26T10:22:06.692Z,9.73
2019-06-26T10:27:11.518Z,7.25
2019-06-26T10:32:16.402Z,7.75
2019-06-26T10:37:22.134Z,8.53
2019-06-26T10:42:29.126Z,7.60
2019-06-26T10:47:33.925Z,8.00
2019-06-26T10:52:46.890Z,9.85
2019-06-26T10:57:51.624Z,8.90
2019-06-26T11:02:56.942Z,9.38
2019-06-26T11:08:01.785Z,5.85
2019-06-26T11:13:06.978Z,7.90
2019-06-26T11:18:11.748Z,6.80
2019-06-26T11:23:16.567Z,6.37
2019-06-26T11:28:21.373Z,9.50
2019-06-26T11:33:27.127Z,9.40
2019-06-26T11:38:31.990Z,9.58
2019-06-26T11:43:38.539Z,8.28
2019-06-26T11:48:43.286Z,8.98
2019-06-26T11:53:49.899Z,7.67
2019-06-26T11:58:54.721Z,8.83
2019-06-26T12:04:05.603Z,7.05
2019-06-26T12:09:10.722Z,9.43
2019-06-26T12:14:15.642Z,5.87
2019-06-26T12:19:23.444Z,7.83
2019-06-26T12:24:28.122Z,7.72
2019-06-26T12:29:33.135Z,8.85
2019-06-26T12:34:39.450Z,8.60
2019-06-26T12:39:45.317Z,8.28
2019-06-26T12:44:51.731Z,6.67
2019-06-26T12:49:56.709Z,9.15
2019-06-26T12:55:01.488Z,6.47
2019-06-26T13:00:07.384Z,9.00
2019-06-26T13:05:14.162Z,7.00
2019-06-26T13:10:20.956Z,7.25
2019-06-26T13:15:28.986Z,9.68
2019-06-26T13:20:48.234Z,7.25
2019-06-26T13:25:40.547Z,8.18
2019-06-26T13:30:45.732Z,7.05
2019-06-26T13:35:52.183Z,7.03
2019-06-26T13:40:57.102Z,8.53
2019-06-26T13:46:03.385Z,7.75
2019-06-26T13:51:10.105Z,8.25
2019-06-26T13:56:20.824Z,8.10
2019-06-26T14:01:26.048Z,8.40
2019-06-26T14:06:30.883Z,7.70
2019-06-26T14:11:35.997Z,7.37
2019-06-26T14:16:41.057Z,8.70
2019-06-26T14:21:45.891Z,10.65
2019-06-26T14:26:51.126Z,8.47
2019-06-26T14:31:56.199Z,7.97
2019-06-26T14:37:01.610Z,9.03
2019-06-26T14:42:12.152Z,9.48
2019-06-26T14:47:17.979Z,9.48
2019-06-26T14:52:23.837Z,8.98
2019-06-26T14:57:34.740Z,8.50
2019-06-26T15:02:39.835Z,7.50
2019-06-26T15:07:44.838Z,7.83
2019-06-26T15:12:49.657Z,8.28
2019-06-26T15:17:54.443Z,8.83
2019-06-26T15:22:59.487Z,10.43
2019-06-26T15:28:04.730Z,9.55
2019-06-26T15:33:10.054Z,8.75
2019-06-26T15:38:15.336Z,10.32
2019-06-26T15:43:21.281Z,10.40
2019-06-26T15:48:26.291Z,8.23
2019-06-26T15:53:31.435Z,9.48
2019-06-26T15:58:36.405Z,9.40
2019-06-26T16:03:51.058Z,8.58
2019-06-26T16:08:56.537Z,8.43
2019-06-26T16:14:07.112Z,8.15
2019-06-26T16:19:15.373Z,8.38
2019-06-26T16:24:20.508Z,7.80
2019-06-26T16:29:25.426Z,8.88
2019-06-26T16:34:30.502Z,8.20
2019-06-26T16:39:35.300Z,8.10
2019-06-26T16:44:40.187Z,8.30
2019-06-26T16:49:45.013Z,8.30
2019-06-26T16:54:49.951Z,7.83
2019-06-26T17:00:08.472Z,7.08
2019-06-26T17:05:01.368Z,8.80
2019-06-26T17:10:13.161Z,7.95
2019-06-26T17:15:18.395Z,8.73
2019-06-26T17:20:23.462Z,7.78
2019-06-26T17:25:28.456Z,7.75
2019-06-26T17:30:33.317Z,7.97
2019-06-26T17:35:38.398Z,7.62
2019-06-26T17:40:50.246Z,8.13
2019-06-26T17:45:58.149Z,6.92
2019-06-26T17:51:03.029Z,7.05
2019-06-26T17:56:07.968Z,6.12
2019-06-26T18:01:12.994Z,6.10
2019-06-26T18:06:17.986Z,5.73
2019-06-26T18:11:22.900Z,5.87
2019-06-26T18:16:27.837Z,5.72
2019-06-26T18:21:32.732Z,5.42
2019-06-26T18:26:37.740Z,5.87
2019-06-26T18:31:42.784Z,5.47
2019-06-26T18:36:47.770Z,5.22
2019-06-26T18:41:52.727Z,5.95
2019-06-26T18:46:57.772Z,6.00
2019-06-26T18:52:03.102Z,5.62
2019-06-26T18:57:08.095Z,6.28
2019-06-26T19:02:13.224Z,6.40
2019-06-26T19:07:18.110Z,6.37
2019-06-26T19:12:25.568Z,6.05
2019-06-26T19:17:42.776Z,5.72
2019-06-26T19:22:47.909Z,6.37
2019-06-26T19:27:53.174Z,6.40
2019-06-26T19:32:58.977Z,6.72
2019-06-26T19:38:04.908Z,6.62
2019-06-26T19:43:11.176Z,6.25
2019-06-26T19:48:16.572Z,6.15
2019-06-26T19:53:24.329Z,6.85
2019-06-26T19:58:29.099Z,7.42
2019-06-26T20:03:33.926Z,6.70
2019-06-26T20:08:53.036Z,6.90
2019-06-26T20:13:46.400Z,6.50
2019-06-26T20:18:51.342Z,6.25
2019-06-26T20:24:01.874Z,6.05
2019-06-26T20:29:06.684Z,6.22
2019-06-26T20:34:12.006Z,6.57
2019-06-26T20:39:21.101Z,5.83
2019-06-26T20:44:29.020Z,6.22
2019-06-26T20:49:33.940Z,5.93
2019-06-26T20:54:41.963Z,6.10
2019-06-26T20:59:46.903Z,6.05
2019-06-26T21:04:51.641Z,6.40
2019-06-26T21:09:56.599Z,6.25
2019-06-26T21:15:01.671Z,5.53
2019-06-26T21:20:07.188Z,6.17
2019-06-26T21:25:19.585Z,5.28
2019-06-26T21:30:31.677Z,5.37
2019-06-26T21:35:36.683Z,5.37
2019-06-26T21:40:41.645Z,5.10
2019-06-26T21:45:46.914Z,5.22
2019-06-26T21:50:51.907Z,4.80
2019-06-26T21:55:56.856Z,4.95
2019-06-26T22:01:26.831Z,4.37
2019-06-26T22:06:50.134Z,4.70
2019-06-26T22:12:12.497Z,4.40
2019-06-26T22:17:20.872Z,4.90
2019-06-26T22:22:25.831Z,4.25
2019-06-26T22:27:33.586Z,4.47
2019-06-26T22:32:38.718Z,4.50
2019-06-26T22:37:43.594Z,4.55
2019-06-26T22:42:48.445Z,4.10
2019-06-26T22:48:05.557Z,4.22
2019-06-26T22:53:10.857Z,4.67
2019-06-26T22:58:15.757Z,4.37
2019-06-26T23:03:20.701Z,4.78
2019-06-26T23:08:25.856Z,4.50
2019-06-26T23:13:31.461Z,4.70
2019-06-26T23:18:40.635Z,4.80
2019-06-26T23:23:45.489Z,5.17
2019-06-26T23:28:50.234Z,4.70
2019-06-26T23:33:55.585Z,4.87
2019-06-26T23:39:00.535Z,5.00
2019-06-26T23:44:07.272Z,5.72
2019-06-26T23:49:12.032Z,5.50
2019-06-26T23:54:16.857Z,6.20
2019-06-26T23:59:21.838Z,5.43
